Date,TemperatureHighF,TemperatureAvgF,TemperatureLowF,DewpointHighF,DewpointAvgF,DewpointLowF,HumidityHigh,HumidityAvg,HumidityLow,PressureMaxIn,PressureMinIn,WindSpeedMaxMPH,WindSpeedAvgMPH,GustSpeedMaxMPH,PrecipitationSumIn
2013-1-1,27,20,14,22,13,8,80,73,60,30.08,29.95,5,1,10,0.00
2013-1-2,25,20,15,20,16,10,89,82,77,30.11,29.99,2,0,7,0.00
2013-1-3,28,21,10,26,17,6,93,85,77,30.09,29.99,2,1,5,0.00
2013-1-4,28,24,20,24,20,17,90,83,70,30.11,29.97,4,2,9,0.00
2013-1-5,32,26,16,31,23,15,99,90,76,30.19,29.96,2,1,4,0.00
2013-1-6,34,32,31,33,30,26,99,92,79,30.20,29.84,3,1,8,0.02
2013-1-7,34,29,26,26,24,22,86,81,72,30.30,30.06,3,1,8,0.00
2013-1-8,36,27,20,28,24,19,97,88,72,30.18,30.08,2,0,5,0.01
2013-1-9,44,36,26,34,29,24,97,77,53,30.37,29.96,5,2,12,0.00
2013-1-10,37,32,24,33,28,23,97,86,72,30.49,30.09,2,1,4,0.02
2013-1-11,54,42,34,52,41,33,99,98,85,30.08,29.71,3,1,7,0.27
2013-1-12,59,49,43,52,48,43,99,94,78,29.90,29.78,2,1,4,0.04
2013-1-13,46,36,28,45,36,28,99,99,92,29.99,29.70,5,1,11,0.73
2013-1-14,28,22,17,27,19,15,97,87,80,30.35,29.99,4,0,7,0.00
2013-1-15,28,21,14,22,18,12,96,87,75,30.34,30.06,1,0,4,0.00
2013-1-16,35,27,19,28,21,18,96,79,51,30.06,29.75,4,1,8,0.00
2013-1-17,35,28,18,29,21,9,89,74,56,30.23,29.90,4,2,11,0.00
2013-1-18,33,25,15,24,16,8,77,69,58,30.34,29.91,4,1,9,0.00
2013-1-19,46,40,33,36,30,24,77,68,58,29.90,29.55,4,2,11,0.00
2013-1-20,42,21,15,35,11,4,76,64,51,30.10,29.53,8,3,16,0.00
2013-1-21,16,12,2,12,7,-2,90,82,69,30.06,29.87,3,0,6,0.00
2013-1-22,9,2,-5,3,-3,-9,85,77,65,30.19,30.02,3,0,7,0.00
2013-1-23,16,9,1,8,4,-2,90,81,67,30.19,29.60,2,0,5,0.00
2013-1-24,18,10,5,9,3,-1,91,74,49,30.49,29.64,4,1,8,0.00
2013-1-25,20,16,10,16,12,3,94,84,70,30.38,29.92,1,0,4,0.00
2013-1-26,26,21,17,19,17,14,96,84,68,30.35,29.96,4,0,11,0.00
2013-1-27,28,21,11,28,17,9,99,86,67,30.37,30.01,2,1,6,0.00
2013-1-28,44,37,29,44,36,28,99,99,99,30.03,29.80,2,0,4,0.18
2013-1-29,57,46,34,56,46,34,99,99,99,29.95,29.41,5,1,8,0.67
2013-1-30,59,48,30,58,47,24,99,95,77,29.41,29.10,6,1,11,0.46
2013-1-31,30,20,14,23,15,11,93,81,70,29.81,29.26,0,0,0,0.00
2013-2-1,18,12,5,12,8,1,91,82,69,30.18,29.81,0,0,0,0.00
2013-2-2,23,15,9,19,12,5,91,86,81,30.12,29.85,0,0,0,0.00
2013-2-3,22,13,4,16,9,1,90,84,73,29.93,29.77,0,0,0,0.01
2013-2-4,22,18,14,20,16,12,94,90,86,29.94,29.79,0,0,0,0.00
2013-2-5,27,20,6,26,17,5,97,89,72,29.88,29.73,0,0,0,0.00
2013-2-6,31,22,14,23,15,10,91,76,58,30.21,29.88,2,0,4,0.00
2013-2-7,37,29,23,30,24,16,94,81,73,30.19,29.77,2,1,6,0.02
2013-2-8,29,25,17,28,22,14,99,86,67,30.27,29.72,8,3,18,0.00
2013-2-9,32,19,10,20,15,8,95,84,60,30.35,30.19,2,0,5,0.01
2013-2-10,37,29,18,36,26,17,99,88,68,30.18,29.62,3,1,7,0.11
2013-2-11,42,39,34,42,37,29,99,93,79,29.62,29.49,5,2,11,0.04
2013-2-12,31,29,26,25,24,21,85,80,74,29.98,29.82,4,2,8,0.00
2013-2-13,38,30,25,27,24,21,93,79,61,29.86,29.66,2,1,4,0.00
2013-2-14,38,33,28,35,30,27,98,90,78,29.79,29.62,5,2,9,0.00
2013-2-15,32,26,19,29,18,13,91,72,59,30.06,29.79,4,1,7,0.00
2013-2-16,26,19,12,18,14,9,92,81,61,30.03,29.90,4,1,7,0.00
2013-2-17,24,16,9,10,8,6,92,73,50,30.11,29.98,5,1,12,0.00
2013-2-18,44,31,14,39,23,7,88,72,55,30.11,29.53,4,1,7,0.02
2013-2-19,42,26,16,41,23,12,99,88,74,29.87,29.36,4,1,11,0.14
2013-2-20,20,18,14,15,12,8,89,77,66,30.16,29.87,4,1,9,0.00
2013-2-21,24,21,20,17,16,14,88,79,72,30.28,30.15,5,2,11,0.00
2013-2-22,32,26,20,32,25,17,99,95,88,30.15,29.81,3,1,7,0.00
2013-2-23,32,28,22,30,22,18,96,78,64,29.86,29.80,4,1,6,0.00
2013-2-24,36,28,21,27,23,18,92,84,66,30.07,29.83,4,1,8,0.06
2013-2-25,41,30,19,28,24,18,96,80,54,30.15,30.01,2,0,6,0.00
2013-2-26,33,30,26,32,27,21,99,88,74,30.03,29.42,4,1,9,0.06
2013-2-27,35,33,32,34,32,32,99,99,99,29.51,29.38,0,0,2,0.11
2013-2-28,35,32,29,34,30,25,99,93,83,29.89,29.49,6,2,13,0.22
2013-3-1,29,25,23,25,21,18,88,84,79,30.03,29.89,7,4,13,0.00
2013-3-2,25,23,19,20,18,15,87,82,77,30.01,29.97,4,2,10,0.00
2013-3-3,30,22,18,16,15,12,87,75,56,29.99,29.93,4,1,9,0.00
2013-3-4,33,23,13,19,15,10,89,72,53,30.06,29.98,3,0,5,0.00
2013-3-5,34,25,19,26,20,15,94,82,67,30.04,29.75,6,2,12,0.00
2013-3-6,38,31,25,29,26,22,91,83,69,30.14,29.77,7,2,11,0.00
2013-3-7,36,32,28,30,26,20,93,78,60,30.32,30.12,7,1,11,0.00
2013-3-8,42,32,22,27,22,17,81,70,52,30.42,30.31,3,0,6,0.00
2013-3-9,42,34,25,33,28,23,95,82,66,30.32,29.96,3,1,5,0.00
2013-3-10,59,47,34,46,38,31,91,73,58,29.96,29.74,2,1,5,0.00
2013-3-11,52,47,35,49,44,32,99,89,69,29.76,29.43,4,1,9,0.40
2013-3-12,35,32,28,32,29,25,95,87,76,29.85,29.64,3,2,8,0.01
2013-3-13,30,27,23,28,21,15,97,78,60,30.12,29.79,5,2,10,0.00
2013-3-14,40,30,20,23,19,15,83,66,46,30.19,30.02,4,1,8,0.01
2013-3-15,41,34,30,34,30,21,99,85,67,30.02,29.77,4,1,8,0.04
2013-3-16,32,29,27,32,27,24,99,94,86,29.97,29.69,2,0,4,0.00
2013-3-17,33,26,20,25,18,14,90,74,55,30.18,29.96,3,0,5,0.04
2013-3-18,33,29,22,33,27,17,99,92,80,30.09,29.49,4,2,8,0.01
2013-3-19,33,25,21,32,19,15,97,78,69,29.87,29.56,5,3,12,0.00
2013-3-20,27,23,15,19,15,10,84,72,59,29.88,29.82,5,2,9,0.00
2013-3-21,30,22,13,23,18,10,92,83,68,29.87,29.79,4,2,8,0.00
2013-3-22,39,30,24,24,21,18,82,71,54,29.96,29.87,4,1,11,0.00
2013-3-23,36,28,22,26,23,20,93,80,62,30.03,29.95,5,1,9,0.00
2013-3-24,35,29,24,27,24,20,94,80,62,29.96,29.57,7,2,12,0.00
2013-3-25,38,33,28,29,26,24,90,77,64,29.86,29.50,10,5,16,0.00
2013-3-26,42,34,31,32,29,27,92,80,58,30.06,29.85,4,2,10,0.02
2013-3-27,46,36,29,31,27,24,91,71,48,30.15,30.06,5,2,13,0.00
2013-3-28,51,39,29,28,25,23,82,60,39,30.21,30.15,4,2,11,0.00
2013-3-29,51,43,31,25,18,12,69,41,25,30.22,30.13,4,1,10,0.00
2013-3-30,55,43,29,27,17,-3,72,42,12,30.16,29.87,3,1,7,0.00
2013-3-31,58,46,39,44,30,18,95,58,24,29.86,29.58,4,2,10,0.02
2013-4-1,39,32,24,25,4,-14,70,36,13,30.04,29.67,6,2,14,0.00
2013-4-2,41,30,22,41,6,-13,69,34,10,30.18,30.03,5,2,9,0.00
2013-4-3,41,32,24,12,-4,-20,58,29,10,30.34,30.18,6,2,12,0.00
2013-4-4,55,40,26,6,-6,-16,43,23,10,30.28,29.90,3,1,6,0.00
2013-4-5,48,41,33,26,-1,-16,73,25,10,30.14,29.88,7,2,13,0.00
2013-4-6,54,41,30,19,5,-14,55,31,10,30.18,29.72,4,1,9,0.00
2013-4-7,57,51,41,39,27,7,61,42,18,29.96,29.57,5,2,12,0.00
2013-4-8,66,46,36,57,37,25,99,73,50,29.98,29.65,7,2,11,0.13
2013-4-9,53,47,42,46,42,39,99,86,69,30.03,29.83,6,1,11,0.00
2013-4-10,46,42,38,45,42,38,99,98,94,29.93,29.79,8,2,11,0.65
2013-4-11,38,37,36,38,37,35,99,99,98,29.92,29.57,4,2,8,0.87
2013-4-12,42,38,35,40,34,28,99,88,62,29.72,29.49,3,1,8,0.32
2013-4-13,41,38,35,36,25,16,90,62,40,29.93,29.72,4,2,9,0.00
2013-4-14,48,39,33,29,24,20,69,56,44,30.04,29.87,4,1,6,0.01
2013-4-15,68,54,38,53,41,28,89,64,43,29.90,29.83,3,1,8,0.04
2013-4-16,60,53,46,52,37,17,98,63,25,30.17,29.82,4,1,8,0.24
2013-4-17,57,47,40,42,30,20,94,55,26,30.27,29.96,6,2,9,0.45
2013-4-18,75,57,43,63,54,41,99,91,62,29.99,29.53,4,1,11,0.73
2013-4-19,57,43,34,57,34,19,99,73,46,29.71,29.32,5,2,14,0.59
2013-4-20,40,34,29,28,9,-9,78,40,15,30.37,29.71,4,2,11,0.00
2013-4-21,48,36,24,19,8,-17,69,37,10,30.53,30.37,4,1,7,0.00
2013-4-22,62,46,31,34,14,-6,84,41,10,30.39,30.13,3,1,5,0.00
2013-4-23,70,54,40,52,29,12,95,48,14,30.13,29.75,3,1,8,0.44
2013-4-24,54,39,33,53,33,17,97,82,48,30.08,29.70,6,2,14,0.40
2013-4-25,50,40,33,36,22,6,83,54,20,30.28,30.04,4,2,11,0.07
2013-4-26,59,46,32,26,16,-3,67,38,11,30.39,30.27,3,1,8,0.00
2013-4-27,69,54,40,68,21,-2,78,38,10,30.30,30.06,3,1,6,0.05
2013-4-28,53,51,49,53,41,18,99,74,29,30.06,29.79,2,0,14,0.15
2013-4-29,70,59,51,55,49,43,99,75,41,29.89,29.79,3,0,5,0.02
2013-4-30,72,53,0,53,49,45,95,62,40,30.02,29.89,3,0,8,0.04
2013-5-1,83,68,55,52,46,34,82,54,21,30.19,30.01,3,1,7,0.00
2013-5-2,80,66,56,47,40,31,70,45,21,30.20,30.08,3,1,7,0.00
2013-5-3,65,57,54,45,38,33,62,51,39,30.10,30.05,1,0,4,0.00
2013-5-5,60,58,56,19,16,10,26,22,17,30.01,29.98,2,0,2,0.00
2013-5-6,76,62,48,35,27,13,54,32,14,30.01,29.93,3,1,7,0.00
2013-5-7,78,63,51,45,38,30,68,44,21,30.02,29.95,2,0,6,0.00
2013-5-8,81,66,54,45,37,12,68,42,11,29.99,29.90,4,1,7,0.00
2013-5-9,80,67,52,48,38,21,77,42,15,29.94,29.85,3,0,6,0.00
2013-5-10,68,57,42,60,50,37,95,77,48,29.89,29.73,4,2,9,0.14
2013-5-11,62,47,38,42,36,26,87,70,32,29.86,29.70,4,1,10,0.02
2013-5-12,48,40,35,29,19,10,71,46,24,30.04,29.84,4,1,12,0.00
2013-5-13,54,43,30,20,4,-13,65,30,10,30.12,30.03,4,1,10,0.00
2013-5-14,78,59,42,43,23,5,51,30,10,30.04,29.69,2,0,7,0.00
2013-5-15,83,71,59,83,37,10,67,34,10,29.78,29.57,3,1,11,0.00
2013-5-16,84,68,52,40,25,8,56,28,10,29.98,29.77,3,1,7,0.00
2013-5-17,77,63,50,34,24,8,49,30,11,30.10,29.99,2,0,5,0.00
2013-5-18,81,65,54,38,29,17,51,30,17,30.10,29.99,1,0,4,0.00
2013-5-19,85,69,53,54,45,31,64,46,27,30.01,29.85,1,0,4,0.00
2013-5-20,88,75,62,65,57,51,85,59,33,29.90,29.76,2,0,7,0.00
2013-5-21,83,74,68,63,56,47,78,57,32,29.80,29.70,2,0,6,0.00
2013-5-22,78,68,61,61,57,48,92,70,38,29.73,29.61,2,0,6,0.01
2013-5-23,62,53,44,61,52,42,99,96,86,30.11,29.67,6,1,11,0.00
2013-5-24,55,46,37,42,30,20,95,61,28,30.29,30.11,6,1,9,0.00
2013-5-25,65,51,37,37,22,-2,84,45,10,30.34,30.23,3,1,7,0.00
2013-5-26,69,55,39,36,17,-5,75,35,10,30.30,30.17,3,0,6,0.00
2013-5-27,56,50,46,51,36,20,97,63,33,30.22,29.94,2,0,4,0.04
2013-5-28,75,62,51,73,60,51,99,94,78,29.95,29.78,2,0,7,0.08
2013-5-29,80,72,65,66,61,55,92,69,43,29.97,29.76,2,0,8,0.01
2013-5-30,86,73,64,68,62,59,86,69,45,30.03,29.93,2,0,5,0.01
2013-5-31,77,70,67,68,64,61,95,82,62,29.98,29.83,2,0,6,0.09
2013-6-1,75,67,63,68,63,59,99,87,59,29.84,29.67,2,0,5,0.19
2013-6-2,68,63,52,63,52,38,91,70,56,29.95,29.65,4,0,6,0.00
2013-6-3,66,55,41,37,27,10,79,42,15,30.05,29.95,4,1,7,0.00
2013-6-4,72,60,49,42,34,16,71,44,16,30.15,30.05,3,0,6,0.00
2013-6-5,74,61,50,40,28,5,53,34,10,30.13,29.95,2,0,4,0.00
2013-6-6,71,60,55,45,40,34,64,49,34,29.96,29.81,4,2,8,0.01
2013-6-7,60,55,51,47,45,42,82,71,60,29.88,29.83,3,1,6,0.00
2013-6-8,73,62,53,50,46,37,83,60,32,30.03,29.87,2,0,4,0.00
2013-6-9,74,66,59,55,50,46,77,59,41,30.07,29.91,2,0,4,0.00
2013-6-10,71,65,62,70,62,48,99,92,54,29.92,29.70,2,0,3,0.44
2013-6-11,79,70,63,65,62,56,99,78,50,29.88,29.75,2,0,6,0.00
2013-6-12,77,69,63,67,62,55,90,78,64,29.90,29.62,1,0,3,0.04
2013-6-13,77,67,61,65,55,41,99,71,31,29.91,29.52,6,1,9,1.37
2013-6-14,76,65,57,55,49,40,84,59,31,30.05,29.91,4,1,7,0.00
2013-6-15,76,65,57,60,54,46,82,69,45,30.05,29.91,1,0,4,0.01
2013-6-16,79,70,62,67,58,43,99,72,36,29.90,29.76,2,0,6,0.33
2013-6-17,84,72,62,60,51,35,70,52,21,29.92,29.82,2,0,5,0.01
2013-6-18,70,63,56,59,46,28,90,59,27,30.04,29.86,4,2,8,0.00
2013-6-19,74,61,47,45,38,29,69,47,22,30.13,30.03,2,0,4,0.00
2013-6-20,80,66,53,49,45,36,76,51,24,30.18,30.10,2,0,4,0.00
2013-6-21,84,71,60,58,52,44,74,54,34,30.17,30.01,1,0,4,0.00
2013-6-22,84,74,67,69,62,49,77,65,51,30.07,29.96,1,0,4,0.00
2013-6-23,87,77,67,64,62,57,84,63,42,30.05,29.95,2,0,7,0.00
2013-6-24,85,78,66,66,63,60,82,62,49,29.66,29.52,0,0,6,0.01
2013-6-25,83,72,66,72,66,59,99,81,62,30.00,29.53,2,0,5,0.51
2013-6-26,80,71,65,71,66,64,99,87,61,29.89,29.72,1,0,4,0.25
2013-6-27,82,71,65,74,68,63,99,92,60,29.75,29.62,3,0,8,0.35
2013-6-28,77,66,62,70,63,58,99,90,59,29.62,29.50,4,0,7,0.66
2013-6-29,70,64,61,68,64,61,99,97,78,29.72,29.53,4,0,5,0.32
2013-6-30,76,66,60,61,56,47,93,75,39,29.92,29.71,4,1,8,0.00
2013-7-1,66,62,57,54,48,36,76,62,43,30.03,29.91,4,2,7,0.01
2013-7-2,72,65,59,59,54,49,79,70,62,30.04,29.99,3,1,6,0.00
2013-7-3,80,70,61,67,60,57,94,75,50,30.08,30.00,1,0,4,0.00
2013-7-4,76,70,64,69,60,48,99,74,48,30.12,30.05,2,0,4,0.00
2013-7-5,79,72,66,68,61,54,92,70,49,30.09,30.03,2,0,4,0.00
2013-7-6,79,72,67,70,66,62,96,82,60,30.09,29.97,1,0,4,0.00
2013-7-7,78,72,67,69,66,61,99,84,63,30.02,29.95,1,0,5,0.25
2013-7-8,80,71,66,78,69,65,99,93,73,30.02,29.95,2,0,4,0.15
2013-7-9,85,74,70,74,70,65,99,87,56,29.97,29.86,2,0,7,0.15
2013-7-10,82,75,67,80,67,48,99,80,45,29.93,29.77,2,0,6,0.00
2013-7-11,78,67,59,52,48,39,75,53,30,30.03,29.93,4,1,6,0.00
2013-7-12,78,66,56,56,52,47,88,62,38,30.13,30.03,2,0,4,0.00
2013-7-13,82,71,60,63,55,44,85,62,30,30.19,30.11,1,0,4,0.00
2013-7-14,85,75,64,69,62,58,89,68,46,30.23,30.18,1,0,3,0.00
2013-7-15,86,76,69,77,71,64,99,86,70,30.28,30.21,2,0,4,0.24
2013-7-16,88,79,74,80,73,68,99,83,56,30.30,29.85,2,0,4,0.86
2013-7-17,87,79,73,73,70,68,89,75,56,30.27,30.14,2,0,4,0.00
2013-7-18,91,80,72,73,69,61,90,72,46,30.16,29.95,1,0,4,0.00
2013-7-19,90,81,75,71,67,61,82,65,40,29.96,29.72,2,0,8,0.00
2013-7-20,83,75,69,72,63,47,99,72,34,29.91,29.72,3,0,9,0.37
2013-7-21,80,71,63,60,56,50,83,62,38,29.98,29.89,2,0,3,0.00
2013-7-22,76,71,67,70,63,58,98,78,57,29.93,29.75,0,0,3,0.06
2013-7-23,82,70,59,71,61,42,96,75,47,29.86,29.67,4,1,10,0.02
2013-7-24,71,62,52,46,42,39,67,51,32,30.02,29.87,4,1,6,0.00
2013-7-25,75,63,51,52,44,33,83,56,24,30.08,30.01,2,0,5,0.00
2013-7-26,76,66,56,56,51,47,78,61,40,30.07,29.88,2,0,3,0.04
2013-7-27,73,64,54,66,60,49,97,87,65,29.89,29.70,2,0,9,0.45
2013-7-28,63,57,50,51,47,42,88,73,50,29.96,29.81,2,0,5,0.00
2013-7-29,67,59,54,55,49,45,83,69,48,30.16,29.95,4,0,5,0.02
2013-7-30,77,64,52,56,50,45,85,64,36,30.20,30.09,2,0,4,0.00
2013-7-31,73,67,64,67,62,56,99,84,67,30.10,29.87,0,0,2,0.22
2013-8-1,76,68,62,65,54,45,99,65,39,29.91,29.85,2,0,7,0.00
2013-8-2,70,64,56,61,54,45,84,70,55,29.91,29.45,2,0,5,0.00
2013-8-3,77,68,61,62,50,33,96,61,25,30.03,29.50,3,0,7,0.00
2013-8-4,72,64,55,48,44,36,72,53,30,30.13,30.03,4,1,7,0.00
2013-8-5,68,62,52,53,48,44,77,62,48,30.09,29.93,1,0,2,0.00
2013-8-6,77,68,62,63,59,51,91,74,53,29.94,29.86,1,0,3,0.01
2013-8-7,76,68,64,72,66,62,99,92,73,29.91,29.81,2,0,4,0.26
2013-8-8,75,69,64,69,59,50,94,72,51,29.99,29.88,3,1,6,0.00
2013-8-9,78,68,61,54,50,40,78,56,29,29.99,29.93,2,0,4,0.00
2013-8-10,75,68,62,58,53,47,76,62,41,30.11,29.99,2,0,4,0.00
2013-8-11,76,66,57,58,52,46,84,61,35,30.09,30.01,1,0,4,0.00
2013-8-12,67,64,62,63,54,48,96,72,50,30.04,29.98,1,0,3,0.38
2013-8-13,66,59,54,65,56,43,99,89,53,29.96,29.82,4,1,6,0.00
2013-8-14,62,58,56,44,42,40,64,54,48,30.12,30.10,0,0,0,0.00
2013-8-15,70,60,50,50,44,38,81,58,31,30.14,30.06,1,0,2,0.00
2013-8-16,74,64,54,49,45,38,76,52,27,30.17,30.08,2,0,4,0.00
2013-8-17,75,65,54,54,48,42,80,57,33,30.24,30.16,2,0,4,0.00
2013-8-18,78,66,57,65,53,46,92,65,34,30.19,30.08,1,0,3,0.00
2013-8-19,77,68,57,60,51,46,82,58,34,30.10,30.02,2,0,5,0.00
2013-8-20,81,74,63,60,57,53,73,57,38,30.13,30.05,42,0,62,0.00
2013-8-21,82,73,65,63,60,58,79,65,49,30.11,29.98,1,0,4,0.00
2013-8-22,76,71,67,65,62,60,90,73,58,30.03,29.95,1,0,4,0.02
2013-8-23,78,69,60,65,48,19,90,54,11,30.17,30.01,3,1,5,0.00
2013-8-24,78,67,56,59,49,44,78,56,31,30.28,30.17,1,0,3,0.00
2013-8-25,82,70,58,58,54,50,81,59,34,30.26,30.14,2,0,4,0.00
2013-8-26,84,75,67,67,59,53,77,57,46,30.15,29.96,2,0,5,0.00
2013-8-27,81,76,70,78,72,65,99,89,77,29.97,29.82,1,0,3,0.84
2013-8-28,79,75,70,75,70,63,99,87,68,29.99,29.77,4,1,6,0.22
2013-8-29,81,73,64,72,65,62,99,79,56,30.06,29.98,2,0,3,0.00
2013-8-30,82,74,65,71,64,59,94,71,45,29.99,29.73,2,0,80,0.01
2013-8-31,79,73,69,71,64,58,95,75,50,29.83,29.72,2,0,4,0.00
2013-9-1,79,72,67,69,65,62,95,80,60,29.83,29.70,2,0,4,0.01
2013-9-2,74,68,60,67,55,41,86,63,40,29.90,29.72,4,1,8,0.00
2013-9-3,71,62,57,48,45,42,64,53,36,30.00,29.89,4,0,6,0.00
2013-9-4,76,65,54,55,50,47,81,60,38,30.06,29.99,2,0,5,0.00
2013-9-5,68,61,52,55,39,25,73,49,20,30.22,30.05,4,1,6,0.00
2013-9-6,70,60,49,48,42,33,78,55,25,30.24,30.04,1,0,3,0.00
2013-9-7,78,67,56,65,53,38,79,61,44,30.04,29.88,2,0,4,0.05
2013-9-8,71,68,59,62,54,45,83,63,42,30.06,29.91,4,1,8,0.00
2013-9-9,74,63,55,74,58,44,99,83,61,30.04,29.87,1,0,2,0.44
2013-9-10,86,77,68,74,66,56,99,74,36,30.00,29.87,2,0,4,0.00
2013-9-11,85,76,68,67,63,57,95,66,50,30.02,29.90,2,0,6,0.06
2013-9-12,76,68,56,67,55,39,97,68,27,29.94,29.83,4,1,11,0.00
2013-9-13,58,53,45,40,34,28,63,49,32,30.09,29.94,4,1,8,0.00
2013-9-14,64,52,40,40,32,20,76,51,19,30.15,30.05,1,0,5,0.00
2013-9-15,62,55,49,52,42,33,89,63,50,30.08,30.01,2,0,4,0.08
2013-9-16,59,54,47,53,44,34,95,71,39,30.32,30.08,4,1,7,0.00
2013-9-17,64,50,39,43,36,31,84,63,30,30.34,30.17,2,0,4,0.00
2013-9-18,70,55,47,52,44,37,81,67,34,30.17,30.00,0,0,2,0.00
2013-9-19,76,68,58,63,59,52,87,74,58,30.02,29.88,1,0,4,0.00
2013-9-20,77,70,66,72,65,60,99,86,58,29.88,29.71,1,0,4,0.30
2013-9-21,66,61,55,64,50,35,99,71,34,29.84,29.66,3,0,7,0.00
2013-9-22,55,52,45,37,32,26,66,47,34,30.03,29.84,4,1,6,0.00
2013-9-23,58,49,42,41,35,31,79,61,37,30.14,30.03,2,0,4,0.00
2013-9-24,62,52,42,47,39,36,85,64,39,30.10,29.95,2,0,4,0.00
2013-9-25,66,54,45,56,44,40,95,69,42,29.97,29.91,1,0,3,0.00
2013-9-26,71,58,48,51,40,29,90,56,22,30.10,29.96,2,0,4,0.00
2013-9-27,71,59,48,55,45,39,84,62,37,30.19,30.10,2,0,4,0.00
2013-9-28,73,61,51,58,47,38,94,64,28,30.16,29.98,1,0,3,0.00
2013-9-29,62,60,57,60,57,50,99,91,73,29.99,29.93,2,0,4,0.21
2013-9-30,66,59,54,61,52,45,99,81,47,29.98,29.89,1,0,4,0.00
2013-10-1,68,61,53,62,54,46,96,78,64,29.98,29.91,1,0,4,0.00
2013-10-2,74,67,58,60,42,25,94,48,17,30.05,29.92,2,0,4,0.00
2013-10-3,74,65,56,62,56,44,85,72,62,30.03,29.90,2,0,4,0.00
2013-10-4,75,70,65,65,62,59,93,77,59,30.00,29.92,1,0,3,0.01
2013-10-5,72,68,63,71,66,62,99,93,80,30.00,28.78,1,0,3,0.14
2013-10-6,68,63,54,68,61,53,99,93,77,29.80,28.74,2,0,5,0.51
2013-10-7,56,52,43,53,42,35,97,71,46,30.08,29.67,2,0,5,0.01
2013-10-8,64,56,47,42,35,27,76,48,26,30.23,30.07,1,0,4,0.00
2013-10-9,66,57,44,50,36,25,88,51,21,30.27,30.17,2,0,4,0.00
2013-10-10,67,56,41,55,35,25,94,52,21,30.18,30.08,1,0,3,0.00
2013-10-11,69,60,44,50,41,36,79,52,30,30.11,30.02,1,0,3,0.00
2013-10-12,72,61,51,57,46,30,87,62,22,30.06,30.00,0,0,3,0.00
2013-10-13,64,58,49,52,29,14,79,38,14,30.30,30.04,3,0,12,0.00
2013-10-14,60,53,44,39,32,25,78,46,26,30.35,30.21,3,0,4,0.00
2013-10-15,61,55,43,58,46,34,90,72,63,30.21,29.80,1,0,4,0.04
2013-10-16,61,53,50,59,42,33,95,68,44,29.87,29.79,2,0,5,0.01
2013-10-17,50,48,45,46,43,39,87,82,66,29.86,29.71,2,0,5,0.22
2013-10-18,60,50,40,49,36,26,97,63,28,29.87,29.80,2,0,8,0.04
2013-10-19,46,43,39,40,36,31,85,75,62,29.87,29.71,1,0,4,0.22
2013-10-20,56,49,39,38,32,26,81,53,31,29.86,29.79,2,0,5,0.04
2013-10-21,54,48,40,43,34,25,77,59,41,29.82,29.76,2,0,5,0.02
2013-10-22,48,41,32,26,17,8,60,38,20,29.86,29.80,2,0,6,0.00
2013-10-23,45,39,31,30,19,4,79,49,18,29.88,29.79,3,0,5,0.00
2013-10-24,44,37,32,27,21,7,73,55,21,30.12,29.87,2,0,7,0.00
2013-10-25,44,39,32,29,18,11,75,44,27,30.26,30.05,2,0,6,0.00
2013-10-26,48,42,36,32,17,4,69,38,20,30.04,29.73,3,1,8,0.05
2013-10-27,50,43,36,25,18,6,61,39,16,30.01,29.92,1,0,4,0.00
2013-10-28,50,43,35,28,23,18,55,46,35,30.01,29.63,3,1,5,0.00
2013-10-29,51,44,35,26,23,19,55,44,35,30.37,29.93,2,0,3,0.00
2013-10-30,61,51,35,46,32,25,78,52,26,30.17,29.90,1,0,4,0.15
2013-10-31,60,59,52,60,58,46,99,98,79,29.90,29.15,2,0,10,1.21
2013-11-1,60,48,44,60,38,30,99,69,54,29.62,29.12,4,1,8,0.06
2013-11-2,47,42,35,40,33,26,87,70,48,30.04,29.62,4,2,8,0.18
2013-11-3,44,38,32,31,23,20,78,57,39,30.36,30.04,2,0,3,0.00
2013-11-4,47,40,34,25,18,-5,69,46,11,30.39,30.23,2,0,4,0.00
2013-11-5,52,48,40,41,34,22,72,59,46,30.29,30.11,1,0,4,0.00
2013-11-6,55,50,42,47,42,31,80,72,55,30.10,29.75,3,1,7,0.13
2013-11-7,44,39,33,32,15,0,70,41,16,30.08,29.94,4,1,8,0.01
2013-11-8,42,37,32,23,12,-1,68,38,16,30.22,30.06,2,0,4,0.00
2013-11-9,55,48,35,22,17,11,52,30,20,30.11,29.75,4,1,9,0.01
2013-11-10,48,42,35,23,10,2,46,28,16,30.21,29.85,3,1,11,0.00
2013-11-11,44,35,26,30,21,10,76,58,33,30.25,29.97,6,2,10,0.18
2013-11-12,32,27,21,10,1,-7,58,34,19,30.46,30.25,5,2,11,0.00
2013-11-13,37,30,19,12,-6,-18,60,25,10,30.46,30.09,4,2,8,0.00
2013-11-14,50,39,29,-2,-8,-14,24,13,10,30.10,29.92,3,1,7,0.01
2013-11-15,50,43,34,10,-2,-12,31,15,10,30.00,29.93,2,1,5,0.00
2013-11-16,56,48,36,46,34,10,73,58,31,30.03,29.75,2,1,6,0.01
2013-11-17,61,56,45,57,49,32,89,78,49,29.74,29.22,8,2,15,0.63
2013-11-18,46,38,33,32,15,5,59,39,30,30.07,29.47,6,3,12,0.00
2013-11-19,39,34,27,10,0,-12,47,26,11,30.32,30.07,4,1,10,0.00
2013-11-20,42,36,26,20,10,-2,61,37,15,30.34,30.15,4,1,7,0.00
2013-11-21,46,43,38,39,30,13,85,62,35,30.20,30.10,2,0,4,0.33
2013-11-22,44,37,27,42,28,13,93,70,41,30.30,30.08,6,2,11,0.01
2013-11-23,28,23,16,14,-9,-26,59,28,10,30.43,30.21,6,3,14,0.01
2013-11-24,24,19,12,-2,-15,-28,41,24,10,30.50,30.32,4,1,8,0.00
2013-11-25,31,26,18,12,-9,-23,51,24,10,30.32,30.00,4,2,8,0.00
2013-11-26,34,30,27,17,14,10,60,50,42,30.03,29.87,4,1,8,0.00
2013-11-27,27,22,17,8,-15,-26,46,20,10,30.11,29.85,7,2,16,0.00
2013-11-28,27,23,16,5,-6,-14,48,28,16,30.32,30.12,2,0,4,0.00
2013-11-29,31,26,18,10,-2,-16,57,32,12,30.56,30.32,2,0,4,0.00
2013-11-30,43,33,26,10,2,-8,40,27,11,30.44,30.02,2,0,5,0.00
2013-12-1,44,36,32,22,16,10,64,44,29,30.02,29.92,3,1,8,0.00
2013-12-2,37,32,27,22,8,-2,67,39,19,29.92,29.81,3,0,6,0.00
2013-12-3,37,34,28,29,23,4,73,64,34,29.83,29.75,2,1,4,0.01
2013-12-4,56,47,36,52,42,29,89,82,73,29.83,29.57,2,0,4,0.01
2013-12-5,57,39,29,51,21,5,83,49,32,30.08,29.56,4,2,8,0.00
2013-12-6,29,24,19,6,-2,-10,39,31,26,30.31,30.06,3,1,8,0.00
2013-12-7,23,18,13,-4,-14,-24,39,23,11,30.52,30.32,3,1,9,0.00
2013-12-8,27,20,10,18,0,-12,70,44,25,30.49,29.90,2,1,4,0.00
2013-12-9,27,24,18,19,6,-6,71,47,32,30.02,29.82,4,2,8,0.00
2013-12-10,20,16,7,-5,-18,-33,36,22,10,30.10,29.86,4,2,10,0.00
2013-12-11,23,16,7,2,-9,-22,47,33,20,30.35,30.09,3,1,7,0.00
2013-12-12,19,13,4,-6,-23,-34,33,19,10,30.34,30.09,4,2,8,0.00
2013-12-13,27,24,19,5,0,-6,43,35,30,30.16,30.07,3,0,5,0.00
2013-12-14,23,19,18,8,5,-2,61,53,38,30.16,29.74,4,2,8,0.00
2013-12-15,24,19,14,13,0,-16,62,44,22,29.94,29.74,4,2,9,0.00
2013-12-16,20,12,4,-3,-9,-15,48,37,23,30.08,29.91,2,0,3,0.00
2013-12-17,25,23,14,13,8,-3,63,53,41,29.92,29.80,2,1,4,0.00
2013-12-18,29,25,20,11,0,-9,56,34,22,30.04,29.82,4,1,7,0.00
2013-12-19,42,34,25,23,15,-8,63,45,22,29.91,29.78,2,0,4,0.07
2013-12-20,40,36,33,38,33,32,94,91,85,29.75,29.65,3,0,4,0.33
2013-12-21,35,33,32,33,32,30,97,96,93,29.78,29.57,4,1,7,0.70
2013-12-22,36,34,32,34,29,25,98,82,69,29.89,29.54,3,1,7,0.21
2013-12-23,32,26,17,25,6,-11,79,44,26,30.22,29.88,0,0,0,0.00
2013-12-24,18,14,9,-11,-16,-22,36,26,15,30.43,30.21,0,0,0,0.00
2013-12-25,23,18,9,12,0,-13,61,45,32,30.40,30.01,2,0,5,0.00
2013-12-26,26,24,22,15,2,-4,63,38,26,30.19,30.00,3,1,7,0.00
2013-12-27,39,35,25,18,15,9,53,44,32,30.22,30.00,3,1,6,0.05
2013-12-28,46,40,33,19,16,12,48,37,25,30.04,29.83,3,1,6,0.00
2013-12-29,41,32,21,20,11,-1,61,42,30,29.93,29.64,6,2,11,0.00
2013-12-30,21,18,15,-1,-17,-27,37,20,11,30.16,29.93,3,1,7,0.00
2013-12-31,19,15,14,-4,-11,-20,41,30,18,30.23,29.99,3,1,9,0.00
2014-1-1,14,12,10,-5,-7,-10,46,41,36,30.27,30.11,4,2,7,0.00
2014-1-2,13,9,1,-3,-13,-35,48,36,15,30.19,29.97,8,5,17,0.00